createdAt,value
2023-04-06T00:00:32.088Z,10.33
2023-04-06T00:03:00.824Z,9.90
2023-04-06T00:05:31.531Z,10.90
2023-04-06T00:08:01.770Z,9.77
2023-04-06T00:10:30.128Z,10.70
2023-04-06T00:12:58.632Z,10.80
2023-04-06T00:15:27.132Z,9.43
2023-04-06T00:17:55.617Z,10.63
2023-04-06T00:20:24.262Z,10.50
2023-04-06T00:22:52.699Z,10.10
2023-04-06T00:25:22.520Z,10.23
2023-04-06T00:27:51.010Z,10.60
2023-04-06T00:30:19.353Z,11.40
2023-04-06T00:32:48.124Z,10.37
2023-04-06T00:35:17.208Z,11.03
2023-04-06T00:37:45.703Z,11.10
2023-04-06T00:40:14.064Z,10.60
2023-04-06T00:42:43.815Z,11.20
2023-04-06T00:45:12.917Z,11.90
2023-04-06T00:47:41.526Z,11.60
2023-04-06T00:50:10.578Z,11.87
2023-04-06T00:52:39.005Z,11.83
2023-04-06T00:55:10.484Z,12.13
2023-04-06T00:57:44.669Z,11.50
2023-04-06T01:00:14.539Z,11.80
2023-04-06T01:02:46.176Z,11.67
2023-04-06T01:05:17.042Z,12.63
2023-04-06T01:07:52.887Z,12.47
2023-04-06T01:10:25.690Z,11.60
2023-04-06T01:12:59.213Z,11.80
2023-04-06T01:15:44.852Z,12.03
2023-04-06T01:18:17.494Z,11.80
2023-04-06T01:20:54.790Z,11.87
2023-04-06T01:23:27.722Z,12.37
2023-04-06T01:25:56.222Z,11.73
2023-04-06T01:28:25.222Z,12.83
2023-04-06T01:31:04.694Z,12.60
2023-04-06T01:33:52.079Z,12.60
2023-04-06T01:36:23.674Z,11.27
2023-04-06T01:39:01.964Z,11.77
2023-04-06T01:41:37.495Z,12.10
2023-04-06T01:44:06.792Z,12.47
2023-04-06T01:46:35.244Z,11.50
2023-04-06T01:49:06.424Z,11.67
2023-04-06T01:51:37.564Z,12.50
2023-04-06T01:54:10.041Z,12.30
2023-04-06T01:56:53.693Z,11.97
2023-04-06T01:59:33.383Z,12.07
2023-04-06T02:02:06.528Z,11.90
2023-04-06T02:04:36.788Z,12.83
2023-04-06T02:07:14.712Z,11.70
2023-04-06T02:09:45.748Z,11.80
2023-04-06T02:12:22.512Z,11.57
2023-04-06T02:14:51.029Z,11.57
2023-04-06T02:17:19.572Z,11.17
2023-04-06T02:19:48.327Z,11.43
2023-04-06T02:22:16.869Z,11.30
2023-04-06T02:24:47.672Z,11.37
2023-04-06T02:27:16.435Z,12.50
2023-04-06T02:29:48.938Z,11.83
2023-04-06T02:32:21.462Z,12.00
2023-04-06T02:34:51.040Z,11.67
2023-04-06T02:37:21.885Z,12.17
2023-04-06T02:39:51.674Z,12.83
2023-04-06T02:42:20.065Z,12.83
2023-04-06T02:44:51.153Z,12.10
2023-04-06T02:47:21.569Z,11.60
2023-04-06T02:49:52.540Z,12.33
2023-04-06T02:52:21.351Z,12.33
2023-04-06T02:54:49.755Z,11.77
2023-04-06T02:57:26.256Z,13.17
2023-04-06T02:59:54.812Z,13.37
2023-04-06T03:02:30.619Z,11.97
2023-04-06T03:05:07.162Z,12.27
2023-04-06T03:07:39.858Z,11.23
2023-04-06T03:10:12.874Z,12.37
2023-04-06T03:12:43.219Z,13.10
2023-04-06T03:15:12.285Z,13.87
2023-04-06T03:17:44.599Z,12.83
2023-04-06T03:20:22.209Z,12.23
2023-04-06T03:22:50.958Z,13.00
2023-04-06T03:25:23.503Z,12.90
2023-04-06T03:27:53.511Z,13.10
2023-04-06T03:30:23.040Z,11.57
2023-04-06T03:32:51.628Z,13.87
2023-04-06T03:35:21.470Z,13.57
2023-04-06T03:37:50.026Z,13.73
2023-04-06T03:40:18.610Z,14.07
2023-04-06T03:42:46.985Z,14.20
2023-04-06T03:45:19.253Z,13.67
2023-04-06T03:47:51.400Z,13.20
2023-04-06T03:50:21.397Z,13.73
2023-04-06T03:52:49.857Z,13.10
2023-04-06T03:55:18.356Z,12.90
2023-04-06T03:57:46.815Z,12.63
2023-04-06T04:00:15.886Z,13.30
2023-04-06T04:02:45.741Z,12.57
2023-04-06T04:05:14.355Z,13.63
2023-04-06T04:07:42.869Z,14.00
2023-04-06T04:10:13.200Z,13.23
2023-04-06T04:12:41.573Z,11.90
2023-04-06T04:15:10.445Z,13.27
2023-04-06T04:17:39.187Z,13.03
2023-04-06T04:20:10.378Z,13.37
2023-04-06T04:22:38.742Z,13.00
2023-04-06T04:25:07.563Z,13.43
2023-04-06T04:27:40.420Z,12.70
2023-04-06T04:30:09.520Z,12.87
2023-04-06T04:32:38.037Z,12.83
2023-04-06T04:35:11.101Z,13.63
2023-04-06T04:37:43.177Z,13.13
2023-04-06T04:40:13.183Z,13.60
2023-04-06T04:43:04.108Z,12.30
2023-04-06T04:45:35.940Z,12.43
2023-04-06T04:48:26.564Z,13.00
2023-04-06T04:51:03.581Z,12.20
2023-04-06T04:53:43.633Z,12.63
2023-04-06T04:56:21.582Z,13.40
2023-04-06T04:58:54.988Z,12.83
2023-04-06T05:01:24.094Z,12.10
2023-04-06T05:03:54.126Z,13.27
2023-04-06T05:06:24.090Z,11.73
2023-04-06T05:08:52.920Z,13.63
2023-04-06T05:11:22.607Z,12.50
2023-04-06T05:13:57.892Z,12.50
2023-04-06T05:16:27.339Z,14.13
2023-04-06T05:18:57.810Z,13.03
2023-04-06T05:21:30.938Z,12.20
2023-04-06T05:24:06.962Z,13.37
2023-04-06T05:26:36.511Z,12.97
2023-04-06T05:29:11.125Z,11.90
2023-04-06T05:31:40.808Z,12.17
2023-04-06T05:34:11.555Z,11.83
2023-04-06T05:36:43.881Z,11.47
2023-04-06T05:39:20.016Z,12.17
2023-04-06T05:41:52.318Z,12.00
2023-04-06T05:44:32.225Z,10.93
2023-04-06T05:47:09.251Z,11.03
2023-04-06T05:49:39.198Z,11.30
2023-04-06T05:52:14.673Z,10.00
2023-04-06T05:54:47.260Z,9.07
2023-04-06T05:57:17.437Z,9.20
2023-04-06T05:59:45.979Z,9.10
2023-04-06T06:02:16.539Z,8.73
2023-04-06T06:04:48.911Z,9.63
2023-04-06T06:07:20.317Z,9.07
2023-04-06T06:10:02.541Z,8.33
2023-04-06T06:12:35.052Z,8.63
2023-04-06T06:15:04.119Z,8.23
2023-04-06T06:17:38.485Z,8.30
2023-04-06T06:20:08.392Z,8.23
2023-04-06T06:22:38.238Z,7.93
2023-04-06T06:25:08.102Z,7.13
2023-04-06T06:27:36.598Z,7.70
2023-04-06T06:30:07.548Z,7.67
2023-04-06T06:32:37.557Z,7.80
2023-04-06T06:35:06.596Z,8.13
2023-04-06T06:37:35.771Z,7.83
2023-04-06T06:40:07.445Z,8.43
2023-04-06T06:42:37.914Z,7.83
2023-04-06T06:45:33.934Z,7.80
2023-04-06T06:48:02.444Z,8.10
2023-04-06T06:50:30.921Z,8.37
2023-04-06T06:52:59.624Z,8.27
2023-04-06T06:55:29.390Z,8.33
2023-04-06T06:57:57.983Z,7.73
2023-04-06T07:00:26.629Z,8.80
2023-04-06T07:02:56.146Z,7.70
2023-04-06T07:05:28.550Z,8.30
2023-04-06T07:07:59.364Z,7.60
2023-04-06T07:10:29.396Z,8.20
2023-04-06T07:12:57.841Z,7.97
2023-04-06T07:15:26.838Z,8.57
2023-04-06T07:17:55.902Z,8.53
2023-04-06T07:20:24.919Z,9.33
2023-04-06T07:22:53.369Z,9.20
2023-04-06T07:25:25.174Z,8.30
2023-04-06T07:27:55.549Z,8.50
2023-04-06T07:30:27.196Z,7.73
2023-04-06T07:32:57.369Z,7.57
2023-04-06T07:35:27.248Z,8.40
2023-04-06T07:37:56.594Z,8.50
2023-04-06T07:40:27.144Z,9.00
2023-04-06T07:42:58.520Z,8.20
2023-04-06T07:45:27.439Z,7.70
2023-04-06T07:47:56.666Z,7.90
2023-04-06T07:50:27.030Z,8.18
2023-04-06T07:52:56.346Z,7.80
2023-04-06T07:55:25.716Z,7.95
2023-04-06T07:57:54.254Z,8.43
2023-04-06T08:00:24.464Z,8.32
2023-04-06T08:02:52.886Z,8.52
2023-04-06T08:05:21.625Z,7.82
2023-04-06T08:07:50.403Z,7.57
2023-04-06T08:10:18.823Z,8.00
2023-04-06T08:12:47.265Z,8.85
2023-04-06T08:15:15.974Z,8.32
2023-04-06T08:17:45.803Z,7.82
2023-04-06T08:20:14.310Z,8.43
2023-04-06T08:22:42.747Z,7.70
2023-04-06T08:25:11.156Z,7.85
2023-04-06T08:27:39.654Z,7.40
2023-04-06T08:30:08.723Z,8.77
2023-04-06T08:32:37.129Z,8.27
2023-04-06T08:35:07.931Z,8.15
2023-04-06T08:37:36.274Z,8.55
2023-04-06T08:40:05.209Z,8.35
2023-04-06T08:42:35.213Z,8.85
2023-04-06T08:45:03.775Z,8.25
2023-04-06T08:47:32.449Z,9.35
2023-04-06T08:50:01.809Z,9.98
2023-04-06T08:52:32.314Z,9.90
2023-04-06T08:55:00.772Z,10.03
2023-04-06T08:57:29.681Z,9.87
2023-04-06T08:59:59.099Z,9.00
2023-04-06T09:02:27.698Z,9.60
2023-04-06T09:04:56.906Z,9.50
2023-04-06T09:07:25.957Z,9.30
2023-04-06T09:09:55.777Z,9.50
2023-04-06T09:12:28.290Z,9.40
2023-04-06T09:14:57.129Z,9.70
2023-04-06T09:17:25.663Z,9.10
2023-04-06T09:19:55.375Z,9.43
2023-04-06T09:22:25.585Z,10.37
2023-04-06T09:24:54.483Z,9.97
2023-04-06T09:27:34.352Z,10.00
2023-04-06T09:30:07.089Z,9.40
2023-04-06T09:32:35.932Z,9.73
2023-04-06T09:35:10.968Z,8.80
2023-04-06T09:37:41.099Z,9.33
2023-04-06T09:40:10.468Z,9.20
2023-04-06T09:42:40.502Z,9.52
2023-04-06T09:45:09.584Z,9.65
2023-04-06T09:47:38.882Z,9.00
2023-04-06T09:50:08.079Z,7.95
2023-04-06T09:52:40.498Z,8.30
2023-04-06T09:55:09.677Z,8.68
2023-04-06T09:57:44.774Z,8.45
2023-04-06T10:00:15.527Z,8.60
2023-04-06T10:02:48.346Z,8.05
2023-04-06T10:05:21.575Z,9.52
2023-04-06T10:08:00.465Z,9.40
2023-04-06T10:10:30.082Z,9.43
2023-04-06T10:13:01.038Z,8.40
2023-04-06T10:15:30.389Z,9.23
2023-04-06T10:17:59.269Z,8.55
2023-04-06T10:20:31.072Z,9.77
2023-04-06T10:23:02.410Z,9.02
2023-04-06T10:25:30.959Z,7.90
2023-04-06T10:28:04.629Z,8.65
2023-04-06T10:30:33.961Z,8.75
2023-04-06T10:33:02.541Z,8.68
2023-04-06T10:35:40.606Z,8.50
2023-04-06T10:38:09.410Z,8.67
2023-04-06T10:40:38.992Z,8.77
2023-04-06T10:43:12.653Z,7.90
2023-04-06T10:45:41.419Z,8.37
2023-04-06T10:48:19.974Z,8.93
2023-04-06T10:50:51.211Z,9.30
2023-04-06T10:53:24.574Z,8.00
2023-04-06T10:55:53.280Z,8.77
2023-04-06T10:58:23.319Z,7.87
2023-04-06T11:00:52.319Z,6.37
2023-04-06T11:03:21.483Z,7.10
2023-04-06T11:05:50.797Z,7.03
2023-04-06T11:08:25.831Z,7.00
2023-04-06T11:10:54.266Z,7.03
2023-04-06T11:13:24.034Z,6.90
2023-04-06T11:15:52.400Z,7.50
2023-04-06T11:18:21.308Z,7.27
2023-04-06T11:20:51.272Z,7.27
2023-04-06T11:23:26.566Z,6.80
2023-04-06T11:25:55.343Z,7.60
2023-04-06T11:28:25.185Z,8.70
2023-04-06T11:30:53.750Z,7.70
2023-04-06T11:33:25.750Z,7.70
2023-04-06T11:35:54.232Z,7.57
2023-04-06T11:38:22.787Z,7.13
2023-04-06T11:40:56.315Z,6.83
2023-04-06T11:43:30.227Z,5.90
2023-04-06T11:46:05.259Z,5.00
2023-04-06T11:48:34.550Z,4.65
2023-04-06T11:51:04.764Z,4.93
2023-04-06T11:53:34.431Z,4.35
2023-04-06T11:56:02.914Z,4.75
2023-04-06T11:58:33.630Z,4.50
2023-04-06T12:01:06.819Z,5.68
2023-04-06T12:03:36.433Z,6.28
2023-04-06T12:06:04.935Z,5.85
2023-04-06T12:08:33.351Z,5.53
2023-04-06T12:11:01.797Z,4.90
2023-04-06T12:13:30.834Z,6.30
2023-04-06T12:16:00.643Z,5.72
2023-04-06T12:18:29.106Z,5.97
2023-04-06T12:20:57.506Z,5.65
2023-04-06T12:23:25.957Z,5.40
2023-04-06T12:25:55.736Z,5.20
2023-04-06T12:28:27.978Z,5.50
2023-04-06T12:30:56.755Z,5.40
2023-04-06T12:33:26.741Z,6.33
2023-04-06T12:35:55.459Z,6.43
2023-04-06T12:38:24.320Z,5.40
2023-04-06T12:40:52.800Z,5.53
2023-04-06T12:43:21.205Z,6.00
2023-04-06T12:45:49.601Z,5.60
2023-04-06T12:48:17.984Z,5.30
2023-04-06T12:50:47.756Z,5.70
2023-04-06T12:53:16.212Z,6.20
2023-04-06T12:55:44.615Z,5.10
2023-04-06T12:58:13.331Z,5.37
2023-04-06T13:00:43.817Z,4.80
2023-04-06T13:03:12.372Z,5.07
2023-04-06T13:05:46.353Z,5.80
2023-04-06T13:08:16.787Z,5.77
2023-04-06T13:10:46.634Z,5.23
2023-04-06T13:13:14.973Z,6.20
2023-04-06T13:15:43.440Z,4.90
2023-04-06T13:18:11.921Z,5.70
2023-04-06T13:20:40.745Z,4.73
2023-04-06T13:23:09.109Z,5.70
2023-04-06T13:25:38.898Z,5.70
2023-04-06T13:28:07.365Z,5.87
2023-04-06T13:30:36.512Z,5.00
2023-04-06T13:33:05.847Z,4.20
2023-04-06T13:35:34.292Z,4.23
2023-04-06T13:38:02.689Z,4.20
2023-04-06T13:40:32.457Z,3.97
2023-04-06T13:43:02.232Z,4.30
2023-04-06T13:45:30.931Z,4.00
2023-04-06T13:47:59.438Z,5.30
2023-04-06T13:50:28.486Z,4.90
2023-04-06T13:52:57.230Z,4.80
2023-04-06T13:55:26.187Z,5.00
2023-04-06T13:57:54.560Z,5.00
2023-04-06T14:00:24.789Z,5.30
2023-04-06T14:02:53.260Z,5.70
2023-04-06T14:05:21.691Z,4.80
2023-04-06T14:07:50.066Z,5.10
2023-04-06T14:10:18.409Z,5.20
2023-04-06T14:12:46.987Z,4.90
2023-04-06T14:15:15.402Z,4.50
2023-04-06T14:17:45.232Z,5.00
2023-04-06T14:20:15.806Z,6.00
2023-04-06T14:22:44.518Z,4.57
2023-04-06T14:25:13.679Z,4.70
2023-04-06T14:27:42.157Z,4.43
2023-04-06T14:30:11.451Z,5.20
2023-04-06T14:32:39.991Z,5.03
2023-04-06T14:35:10.072Z,5.80
2023-04-06T14:37:38.518Z,4.90
2023-04-06T14:40:07.349Z,5.20
2023-04-06T14:42:35.752Z,4.97
2023-04-06T14:45:04.156Z,5.00
2023-04-06T14:47:32.650Z,5.20
2023-04-06T14:50:01.143Z,4.90
2023-04-06T14:52:32.803Z,4.83
2023-04-06T14:55:01.444Z,4.73
2023-04-06T14:57:29.867Z,4.73
2023-04-06T14:59:58.273Z,4.50
2023-04-06T15:02:26.975Z,5.40
2023-04-06T15:04:55.561Z,4.53
2023-04-06T15:07:23.890Z,5.07
2023-04-06T15:09:54.218Z,4.73
2023-04-06T15:12:22.559Z,5.10
2023-04-06T15:14:51.164Z,4.57
2023-04-06T15:17:19.656Z,5.70
2023-04-06T15:19:48.058Z,5.20
2023-04-06T15:22:16.418Z,5.30
2023-04-06T15:24:44.811Z,5.10
2023-04-06T15:27:14.622Z,5.23
2023-04-06T15:29:43.028Z,5.43
2023-04-06T15:32:12.438Z,5.37
2023-04-06T15:34:40.889Z,5.27
2023-04-06T15:37:09.750Z,4.90
2023-04-06T15:39:38.194Z,4.97
2023-04-06T15:42:06.737Z,5.40
2023-04-06T15:44:36.538Z,5.40
2023-04-06T15:47:04.960Z,5.47
2023-04-06T15:49:33.399Z,4.70
2023-04-06T15:52:02.143Z,5.00
2023-04-06T15:54:30.822Z,4.63
2023-04-06T15:56:59.223Z,4.20
2023-04-06T15:59:27.659Z,5.00
2023-04-06T16:01:57.551Z,4.93
2023-04-06T16:04:27.421Z,4.53
2023-04-06T16:06:55.900Z,4.60
2023-04-06T16:09:24.423Z,4.77
2023-04-06T16:11:53.152Z,5.10
2023-04-06T16:14:21.903Z,3.97
2023-04-06T16:16:50.875Z,4.50
2023-04-06T16:19:20.856Z,5.20
2023-04-06T16:21:49.152Z,4.80
2023-04-06T16:24:17.575Z,4.43
2023-04-06T16:26:46.599Z,4.53
2023-04-06T16:29:16.886Z,4.40
2023-04-06T16:31:47.248Z,4.43
2023-04-06T16:34:15.955Z,4.67
2023-04-06T16:36:46.479Z,4.73
2023-04-06T16:39:17.203Z,4.87
2023-04-06T16:41:45.820Z,5.13
2023-04-06T16:44:14.759Z,4.60
2023-04-06T16:46:44.038Z,4.57
2023-04-06T16:49:12.902Z,4.83
2023-04-06T16:51:42.248Z,4.93
2023-04-06T16:54:12.146Z,4.47
2023-04-06T16:56:40.593Z,5.30
2023-04-06T16:59:09.579Z,5.73
2023-04-06T17:01:38.578Z,5.20
2023-04-06T17:04:07.312Z,4.80
2023-04-06T17:06:35.841Z,4.87
2023-04-06T17:09:04.251Z,5.00
2023-04-06T17:11:45.949Z,5.00
2023-04-06T17:14:14.824Z,5.50
2023-04-06T17:16:43.304Z,5.83
2023-04-06T17:19:11.765Z,6.00
2023-04-06T17:21:41.708Z,5.30
2023-04-06T17:24:10.525Z,5.63
2023-04-06T17:26:40.483Z,5.17
2023-04-06T17:29:09.041Z,5.37
2023-04-06T17:31:37.752Z,5.33
2023-04-06T17:34:06.873Z,5.30
2023-04-06T17:36:35.267Z,5.77
2023-04-06T17:39:04.140Z,6.60
2023-04-06T17:41:34.426Z,5.87
2023-04-06T17:44:04.348Z,7.03
2023-04-06T17:46:32.876Z,6.67
2023-04-06T17:49:01.303Z,7.77
2023-04-06T17:51:29.736Z,6.50
2023-04-06T17:53:58.239Z,6.83
2023-04-06T17:56:26.690Z,7.00
2023-04-06T17:58:58.047Z,7.40
2023-04-06T18:01:28.260Z,6.73
2023-04-06T18:03:56.819Z,8.13
2023-04-06T18:06:26.436Z,8.10
2023-04-06T18:08:55.112Z,8.57
2023-04-06T18:11:23.684Z,8.63
2023-04-06T18:13:52.483Z,8.60
2023-04-06T18:16:21.948Z,7.97
2023-04-06T18:18:52.229Z,8.17
2023-04-06T18:21:20.640Z,7.20
2023-04-06T18:23:49.454Z,7.77
2023-04-06T18:26:19.104Z,8.13
2023-04-06T18:28:48.054Z,8.23
2023-04-06T18:31:16.620Z,8.97
2023-04-06T18:33:45.078Z,8.07
2023-04-06T18:36:14.910Z,7.97
2023-04-06T18:38:44.480Z,7.60
2023-04-06T18:41:12.897Z,7.33
2023-04-06T18:43:41.371Z,7.93
2023-04-06T18:46:12.479Z,7.40
2023-04-06T18:48:40.913Z,8.33
2023-04-06T18:51:09.486Z,8.57
2023-04-06T18:53:40.023Z,8.33
2023-04-06T18:56:15.552Z,9.07
2023-04-06T18:58:44.480Z,8.80
2023-04-06T19:01:13.122Z,8.67
2023-04-06T19:03:41.674Z,8.63
2023-04-06T19:06:10.232Z,8.33
2023-04-06T19:08:42.949Z,8.53
2023-04-06T19:11:11.923Z,9.27
2023-04-06T19:13:40.488Z,9.40
2023-04-06T19:16:10.525Z,8.53
2023-04-06T19:18:42.631Z,8.43
2023-04-06T19:21:16.724Z,8.27
2023-04-06T19:23:46.845Z,8.83
2023-04-06T19:26:15.626Z,8.13
2023-04-06T19:28:44.922Z,7.73
2023-04-06T19:31:14.472Z,7.90
2023-04-06T19:33:43.118Z,7.00
2023-04-06T19:36:11.815Z,7.23
2023-04-06T19:38:40.579Z,7.03
2023-04-06T19:41:10.441Z,6.77
2023-04-06T19:43:38.844Z,6.83
2023-04-06T19:46:09.105Z,6.50
2023-04-06T19:48:37.663Z,6.73
2023-04-06T19:51:06.102Z,6.83
2023-04-06T19:53:34.516Z,6.60
2023-04-06T19:56:02.888Z,7.57
2023-04-06T19:58:33.449Z,7.20
2023-04-06T20:01:01.861Z,6.73
2023-04-06T20:03:36.754Z,6.10
2023-04-06T20:06:09.925Z,6.30
2023-04-06T20:08:38.437Z,7.10
2023-04-06T20:11:07.581Z,5.97
2023-04-06T20:13:37.686Z,6.67
2023-04-06T20:16:06.112Z,6.17
2023-04-06T20:18:34.531Z,6.47
2023-04-06T20:21:02.954Z,7.00
2023-04-06T20:23:31.350Z,6.77
2023-04-06T20:25:59.691Z,7.03
2023-04-06T20:28:28.593Z,7.30
2023-04-06T20:30:58.454Z,6.93
2023-04-06T20:33:26.840Z,7.00
2023-04-06T20:35:58.566Z,7.53
2023-04-06T20:38:33.035Z,7.30
2023-04-06T20:41:02.310Z,7.67
2023-04-06T20:43:31.601Z,7.30
2023-04-06T20:46:02.711Z,7.23
2023-04-06T20:48:33.474Z,7.97
2023-04-06T20:51:03.149Z,7.33
2023-04-06T20:53:31.824Z,8.30
2023-04-06T20:56:00.315Z,8.70
2023-04-06T20:58:28.739Z,8.47
2023-04-06T21:00:57.118Z,9.33
2023-04-06T21:03:27.043Z,8.70
2023-04-06T21:05:57.232Z,10.00
2023-04-06T21:08:25.689Z,9.33
2023-04-06T21:10:54.052Z,9.70
2023-04-06T21:13:22.451Z,8.53
2023-04-06T21:15:51.770Z,9.77
2023-04-06T21:18:20.903Z,9.53
2023-04-06T21:20:50.904Z,8.83
2023-04-06T21:23:19.302Z,9.47
2023-04-06T21:25:47.712Z,9.00
2023-04-06T21:28:16.087Z,9.83
2023-04-06T21:30:44.744Z,8.83
2023-04-06T21:33:13.566Z,9.37
2023-04-06T21:35:42.281Z,10.00
2023-04-06T21:38:12.075Z,9.50
2023-04-06T21:40:40.760Z,10.07
2023-04-06T21:43:10.645Z,9.40
2023-04-06T21:45:40.208Z,9.37
2023-04-06T21:48:08.912Z,9.03
2023-04-06T21:50:41.079Z,8.80
2023-04-06T21:53:09.730Z,10.03
2023-04-06T21:55:43.806Z,9.67
2023-04-06T21:58:12.210Z,10.20
2023-04-06T22:00:40.863Z,9.77
2023-04-06T22:03:09.409Z,8.90
2023-04-06T22:05:38.181Z,10.57
2023-04-06T22:08:07.392Z,9.90
2023-04-06T22:10:36.617Z,9.57
2023-04-06T22:13:06.372Z,9.73
2023-04-06T22:15:35.223Z,9.83
2023-04-06T22:18:03.704Z,9.87
2023-04-06T22:20:32.298Z,10.13
2023-04-06T22:23:00.707Z,11.17
2023-04-06T22:25:29.402Z,10.57
2023-04-06T22:27:57.763Z,9.63
2023-04-06T22:30:27.549Z,10.00
2023-04-06T22:32:56.000Z,10.23
2023-04-06T22:35:24.512Z,9.63
2023-04-06T22:37:52.922Z,10.60
2023-04-06T22:40:21.278Z,10.57
2023-04-06T22:42:49.630Z,11.03
2023-04-06T22:45:18.117Z,11.13
2023-04-06T22:47:47.961Z,11.60
2023-04-06T22:50:17.002Z,11.00
2023-04-06T22:52:45.603Z,11.47
2023-04-06T22:55:14.258Z,10.87
2023-04-06T22:57:42.701Z,11.13
2023-04-06T23:00:11.919Z,11.20
2023-04-06T23:02:40.569Z,11.23
2023-04-06T23:05:11.159Z,11.13
2023-04-06T23:07:39.531Z,11.80
2023-04-06T23:10:08.841Z,10.30
2023-04-06T23:12:37.282Z,10.37
2023-04-06T23:15:05.971Z,10.60
2023-04-06T23:17:34.326Z,10.70
2023-04-06T23:20:02.775Z,11.00
2023-04-06T23:22:32.532Z,9.47
2023-04-06T23:25:01.148Z,10.23
2023-04-06T23:27:29.549Z,10.30
2023-04-06T23:29:58.003Z,11.10
2023-04-06T23:32:26.594Z,10.97
2023-04-06T23:34:55.073Z,9.53
2023-04-06T23:37:23.495Z,9.33
2023-04-06T23:39:53.484Z,10.13
2023-04-06T23:42:21.870Z,9.87
2023-04-06T23:44:57.396Z,9.50
2023-04-06T23:47:25.989Z,9.70
2023-04-06T23:49:54.486Z,9.30
2023-04-06T23:52:22.848Z,8.60
2023-04-06T23:54:52.636Z,8.93
2023-04-06T23:57:21.063Z,8.70
2023-04-06T23:59:49.442Z,8.43
